DECMH PHNL-PHMK
Flight info
| Callsign | DECMH |
|---|---|
| Flight time | 0h 39m |
| Altitude | VFR |
| Route | DEPART TO EAST |
| Aircraft | C172/L-VGD/C |
Departure
| Time | 2026-04-14 17:17 |
|---|---|
| Airport | Daniel K. Inouye International Airport (PHNL) |
Arrival
| Time | 2026-04-14 17:56 |
|---|---|
| Airport | Molokai Airport (PHMK) |
| Time | Latitude | Longitude | Altitude | Speed | Heading |
|---|---|---|---|---|---|
| 2026-04-14 17:01 | 21.32855 | -157.93342 | 15 ft | 0 kts | 0° |
| 2026-04-14 17:04 | 21.32859 | -157.93341 | 15 ft | 2 kts | 45° |
| 2026-04-14 17:05 | 21.32833 | -157.93330 | 15 ft | 9 kts | 182° |
| 2026-04-14 17:05 | 21.32772 | -157.93327 | 14 ft | 8 kts | 172° |
| 2026-04-14 17:05 | 21.32744 | -157.93286 | 14 ft | 7 kts | 92° |
| 2026-04-14 17:05 | 21.32744 | -157.93237 | 15 ft | 6 kts | 90° |
| 2026-04-14 17:06 | 21.32743 | -157.93185 | 15 ft | 8 kts | 90° |
| 2026-04-14 17:06 | 21.32743 | -157.93111 | 15 ft | 12 kts | 90° |
| 2026-04-14 17:06 | 21.32742 | -157.93010 | 14 ft | 16 kts | 90° |
| 2026-04-14 17:06 | 21.32743 | -157.92902 | 13 ft | 4 kts | 90° |
| 2026-04-14 17:07 | 21.32743 | -157.92897 | 13 ft | 0 kts | 97° |
| 2026-04-14 17:07 | 21.32724 | -157.92893 | 13 ft | 6 kts | 194° |
| 2026-04-14 17:07 | 21.32666 | -157.92896 | 14 ft | 9 kts | 181° |
| 2026-04-14 17:07 | 21.32649 | -157.92896 | 14 ft | 0 kts | 175° |
| 2026-04-14 17:08 | 21.32646 | -157.92896 | 14 ft | 2 kts | 188° |
| 2026-04-14 17:08 | 21.32644 | -157.92896 | 14 ft | 0 kts | 188° |
| 2026-04-14 17:12 | 21.32609 | -157.92898 | 14 ft | 12 kts | 179° |
| 2026-04-14 17:12 | 21.32526 | -157.92872 | 14 ft | 10 kts | 92° |
| 2026-04-14 17:13 | 21.32526 | -157.92852 | 14 ft | 0 kts | 91° |
| 2026-04-14 17:15 | 21.32526 | -157.92850 | 14 ft | 2 kts | 90° |
| 2026-04-14 17:16 | 21.32526 | -157.92690 | 14 ft | 46 kts | 90° |
| 2026-04-14 17:16 | 21.32534 | -157.92195 | 56 ft | 79 kts | 90° |
| 2026-04-14 17:16 | 21.32531 | -157.91570 | 213 ft | 87 kts | 89° |
| 2026-04-14 17:16 | 21.32548 | -157.90909 | 416 ft | 88 kts | 94° |
| 2026-04-14 17:17 | 21.32292 | -157.90308 | 592 ft | 93 kts | 133° |
| 2026-04-14 17:17 | 21.31807 | -157.89873 | 687 ft | 91 kts | 141° |
| 2026-04-14 17:17 | 21.31294 | -157.89431 | 676 ft | 97 kts | 140° |
| 2026-04-14 17:17 | 21.30799 | -157.88954 | 708 ft | 95 kts | 136° |
| 2026-04-14 17:18 | 21.30317 | -157.88453 | 784 ft | 97 kts | 133° |
| 2026-04-14 17:18 | 21.29891 | -157.87922 | 953 ft | 95 kts | 127° |
| 2026-04-14 17:18 | 21.29500 | -157.87334 | 1057 ft | 97 kts | 127° |
| 2026-04-14 17:18 | 21.28973 | -157.86861 | 1134 ft | 102 kts | 139° |
| 2026-04-14 17:19 | 21.28411 | -157.86383 | 1225 ft | 100 kts | 139° |
| 2026-04-14 17:19 | 21.27852 | -157.85906 | 1285 ft | 106 kts | 138° |
| 2026-04-14 17:19 | 21.27289 | -157.85412 | 1418 ft | 102 kts | 137° |
| 2026-04-14 17:19 | 21.26736 | -157.84940 | 1522 ft | 103 kts | 140° |
| 2026-04-14 17:20 | 21.26160 | -157.84487 | 1639 ft | 102 kts | 140° |
| 2026-04-14 17:20 | 21.25599 | -157.84021 | 1720 ft | 103 kts | 136° |
| 2026-04-14 17:20 | 21.25045 | -157.83530 | 1832 ft | 103 kts | 137° |
| 2026-04-14 17:20 | 21.24486 | -157.83046 | 1944 ft | 103 kts | 141° |
| 2026-04-14 17:21 | 21.23920 | -157.82567 | 2049 ft | 104 kts | 137° |
| 2026-04-14 17:21 | 21.23365 | -157.82069 | 2160 ft | 105 kts | 139° |
| 2026-04-14 17:21 | 21.22806 | -157.81570 | 2270 ft | 104 kts | 138° |
| 2026-04-14 17:21 | 21.22269 | -157.81055 | 2380 ft | 103 kts | 134° |
| 2026-04-14 17:22 | 21.21772 | -157.80502 | 2479 ft | 103 kts | 131° |
| 2026-04-14 17:22 | 21.21292 | -157.79907 | 2518 ft | 108 kts | 129° |
| 2026-04-14 17:22 | 21.20789 | -157.79329 | 2597 ft | 109 kts | 136° |
| 2026-04-14 17:22 | 21.20175 | -157.78776 | 2522 ft | 118 kts | 139° |
| 2026-04-14 17:23 | 21.19540 | -157.78213 | 2524 ft | 119 kts | 140° |
| 2026-04-14 17:23 | 21.18910 | -157.77652 | 2524 ft | 120 kts | 139° |
| 2026-04-14 17:23 | 21.18277 | -157.77080 | 2516 ft | 119 kts | 133° |
| 2026-04-14 17:23 | 21.17868 | -157.76318 | 2514 ft | 118 kts | 119° |
| 2026-04-14 17:24 | 21.17444 | -157.75559 | 2507 ft | 119 kts | 120° |
| 2026-04-14 17:24 | 21.17021 | -157.74800 | 2512 ft | 118 kts | 120° |
| 2026-04-14 17:24 | 21.16602 | -157.74046 | 2513 ft | 117 kts | 120° |
| 2026-04-14 17:24 | 21.16190 | -157.73300 | 2508 ft | 116 kts | 120° |
| 2026-04-14 17:25 | 21.15778 | -157.72557 | 2505 ft | 115 kts | 120° |
| 2026-04-14 17:25 | 21.15367 | -157.71821 | 2504 ft | 115 kts | 120° |
| 2026-04-14 17:25 | 21.14982 | -157.71075 | 2495 ft | 114 kts | 106° |
| 2026-04-14 17:25 | 21.14905 | -157.70242 | 2495 ft | 112 kts | 94° |
| 2026-04-14 17:26 | 21.14848 | -157.69404 | 2498 ft | 113 kts | 94° |
| 2026-04-14 17:26 | 21.14787 | -157.68566 | 2495 ft | 114 kts | 94° |
| 2026-04-14 17:26 | 21.14729 | -157.67722 | 2496 ft | 114 kts | 94° |
| 2026-04-14 17:26 | 21.14672 | -157.66876 | 2501 ft | 114 kts | 94° |
| 2026-04-14 17:27 | 21.14615 | -157.66025 | 2497 ft | 115 kts | 94° |
| 2026-04-14 17:27 | 21.14555 | -157.65166 | 2500 ft | 116 kts | 94° |
| 2026-04-14 17:27 | 21.14494 | -157.64305 | 2498 ft | 116 kts | 94° |
| 2026-04-14 17:27 | 21.14433 | -157.63445 | 2504 ft | 115 kts | 94° |
| 2026-04-14 17:28 | 21.14505 | -157.62648 | 2607 ft | 107 kts | 66° |
| 2026-04-14 17:28 | 21.14818 | -157.61947 | 2718 ft | 102 kts | 66° |
| 2026-04-14 17:28 | 21.15116 | -157.61269 | 2826 ft | 99 kts | 66° |
| 2026-04-14 17:28 | 21.15395 | -157.60603 | 2935 ft | 96 kts | 76° |
| 2026-04-14 17:29 | 21.15507 | -157.59888 | 2991 ft | 101 kts | 82° |
| 2026-04-14 17:29 | 21.15621 | -157.59124 | 2999 ft | 107 kts | 82° |
| 2026-04-14 17:29 | 21.15740 | -157.58325 | 3007 ft | 110 kts | 82° |
| 2026-04-14 17:29 | 21.15861 | -157.57508 | 3011 ft | 112 kts | 82° |
| 2026-04-14 17:30 | 21.15983 | -157.56681 | 3006 ft | 113 kts | 82° |
| 2026-04-14 17:30 | 21.16106 | -157.55849 | 3007 ft | 114 kts | 82° |
| 2026-04-14 17:30 | 21.16228 | -157.55008 | 3006 ft | 114 kts | 82° |
| 2026-04-14 17:30 | 21.16170 | -157.54167 | 3003 ft | 114 kts | 99° |
| 2026-04-14 17:31 | 21.16001 | -157.53339 | 3007 ft | 114 kts | 110° |
| 2026-04-14 17:31 | 21.15716 | -157.52546 | 3008 ft | 114 kts | 111° |
| 2026-04-14 17:31 | 21.15431 | -157.51754 | 3008 ft | 114 kts | 111° |
| 2026-04-14 17:31 | 21.15146 | -157.50971 | 3009 ft | 114 kts | 111° |
| 2026-04-14 17:32 | 21.14860 | -157.50175 | 3007 ft | 115 kts | 111° |
| 2026-04-14 17:32 | 21.14573 | -157.49379 | 3008 ft | 115 kts | 111° |
| 2026-04-14 17:32 | 21.14283 | -157.48581 | 3010 ft | 115 kts | 111° |
| 2026-04-14 17:32 | 21.13995 | -157.47786 | 3010 ft | 115 kts | 111° |
| 2026-04-14 17:33 | 21.13706 | -157.46989 | 3010 ft | 115 kts | 111° |
| 2026-04-14 17:33 | 21.13415 | -157.46194 | 3013 ft | 115 kts | 111° |
| 2026-04-14 17:33 | 21.13125 | -157.45399 | 3012 ft | 114 kts | 111° |
| 2026-04-14 17:34 | 21.12545 | -157.43810 | 3012 ft | 115 kts | 111° |
| 2026-04-14 17:34 | 21.12255 | -157.43011 | 3014 ft | 115 kts | 111° |
| 2026-04-14 17:34 | 21.11966 | -157.42213 | 3014 ft | 115 kts | 111° |
| 2026-04-14 17:34 | 21.11675 | -157.41415 | 3014 ft | 115 kts | 111° |
| 2026-04-14 17:35 | 21.11384 | -157.40618 | 3016 ft | 115 kts | 111° |
| 2026-04-14 17:35 | 21.11096 | -157.39829 | 3014 ft | 115 kts | 111° |
| 2026-04-14 17:35 | 21.10803 | -157.39028 | 3016 ft | 115 kts | 111° |
| 2026-04-14 17:35 | 21.10512 | -157.38225 | 3018 ft | 115 kts | 111° |
| 2026-04-14 17:36 | 21.10222 | -157.37425 | 3017 ft | 115 kts | 111° |
| 2026-04-14 17:36 | 21.09932 | -157.36627 | 3020 ft | 115 kts | 111° |
| 2026-04-14 17:36 | 21.09641 | -157.35828 | 3017 ft | 115 kts | 111° |
| 2026-04-14 17:36 | 21.09351 | -157.35029 | 3018 ft | 115 kts | 111° |
| 2026-04-14 17:37 | 21.09062 | -157.34231 | 3019 ft | 115 kts | 111° |
| 2026-04-14 17:37 | 21.08770 | -157.33435 | 3021 ft | 115 kts | 111° |
| 2026-04-14 17:37 | 21.08476 | -157.32635 | 3020 ft | 115 kts | 111° |
| 2026-04-14 17:37 | 21.08182 | -157.31835 | 3022 ft | 116 kts | 111° |
| 2026-04-14 17:38 | 21.07891 | -157.31042 | 3022 ft | 116 kts | 111° |
| 2026-04-14 17:38 | 21.07749 | -157.30207 | 3019 ft | 115 kts | 90° |
| 2026-04-14 17:38 | 21.07737 | -157.29351 | 3019 ft | 115 kts | 91° |
| 2026-04-14 17:38 | 21.07721 | -157.28492 | 3018 ft | 115 kts | 91° |
| 2026-04-14 17:39 | 21.07706 | -157.27632 | 3023 ft | 116 kts | 91° |
| 2026-04-14 17:39 | 21.07689 | -157.26769 | 3022 ft | 116 kts | 91° |
| 2026-04-14 17:39 | 21.07670 | -157.25907 | 3023 ft | 116 kts | 91° |
| 2026-04-14 17:39 | 21.07651 | -157.25043 | 3023 ft | 116 kts | 91° |
| 2026-04-14 17:40 | 21.07792 | -157.24212 | 3014 ft | 115 kts | 62° |
| 2026-04-14 17:40 | 21.08205 | -157.23487 | 3015 ft | 114 kts | 57° |
| 2026-04-14 17:40 | 21.08634 | -157.22791 | 3017 ft | 110 kts | 56° |
| 2026-04-14 17:40 | 21.09067 | -157.22127 | 2922 ft | 107 kts | 56° |
| 2026-04-14 17:41 | 21.09488 | -157.21466 | 2681 ft | 107 kts | 56° |
| 2026-04-14 17:41 | 21.09896 | -157.20826 | 2529 ft | 98 kts | 56° |
| 2026-04-14 17:41 | 21.10259 | -157.20266 | 2556 ft | 90 kts | 55° |
| 2026-04-14 17:41 | 21.10610 | -157.19724 | 2555 ft | 87 kts | 55° |
| 2026-04-14 17:42 | 21.10947 | -157.19201 | 2554 ft | 83 kts | 54° |
| 2026-04-14 17:42 | 21.11266 | -157.18699 | 2555 ft | 81 kts | 55° |
| 2026-04-14 17:42 | 21.11572 | -157.18198 | 2526 ft | 82 kts | 59° |
| 2026-04-14 17:42 | 21.11833 | -157.17626 | 2487 ft | 85 kts | 67° |
| 2026-04-14 17:43 | 21.12051 | -157.17041 | 2414 ft | 86 kts | 65° |
| 2026-04-14 17:43 | 21.12336 | -157.16488 | 2311 ft | 86 kts | 58° |
| 2026-04-14 17:43 | 21.12668 | -157.15933 | 2195 ft | 90 kts | 54° |
| 2026-04-14 17:43 | 21.13006 | -157.15345 | 2061 ft | 92 kts | 65° |
| 2026-04-14 17:44 | 21.13295 | -157.14713 | 1942 ft | 96 kts | 62° |
| 2026-04-14 17:44 | 21.13571 | -157.14036 | 1751 ft | 102 kts | 66° |
| 2026-04-14 17:44 | 21.13812 | -157.13357 | 1597 ft | 93 kts | 70° |
| 2026-04-14 17:44 | 21.14022 | -157.12731 | 1448 ft | 81 kts | 70° |
| 2026-04-14 17:45 | 21.14183 | -157.12214 | 1296 ft | 75 kts | 70° |
| 2026-04-14 17:45 | 21.14251 | -157.11656 | 1116 ft | 75 kts | 88° |
| 2026-04-14 17:45 | 21.14403 | -157.11183 | 877 ft | 69 kts | 86° |
| 2026-04-14 17:45 | 21.14624 | -157.10710 | 622 ft | 68 kts | 53° |
| 2026-04-14 17:46 | 21.14870 | -157.10277 | 524 ft | 68 kts | 57° |
| 2026-04-14 17:46 | 21.15097 | -157.09855 | 443 ft | 60 kts | 56° |
| 2026-04-14 17:46 | 21.15277 | -157.09526 | 438 ft | 54 kts | 62° |
| 2026-04-14 17:46 | 21.15512 | -157.09073 | 532 ft | 76 kts | 63° |
| 2026-04-14 17:47 | 21.15768 | -157.08557 | 698 ft | 84 kts | 60° |
| 2026-04-14 17:47 | 21.16149 | -157.08072 | 840 ft | 89 kts | 26° |
| 2026-04-14 17:47 | 21.16745 | -157.08173 | 956 ft | 95 kts | 331° |
| 2026-04-14 17:47 | 21.17358 | -157.08589 | 968 ft | 110 kts | 330° |
| 2026-04-14 17:48 | 21.17905 | -157.09165 | 1002 ft | 118 kts | 290° |
| 2026-04-14 17:48 | 21.17588 | -157.09895 | 1108 ft | 120 kts | 208° |
| 2026-04-14 17:48 | 21.16861 | -157.10280 | 1190 ft | 119 kts | 233° |
| 2026-04-14 17:48 | 21.16459 | -157.11080 | 1176 ft | 124 kts | 250° |
| 2026-04-14 17:49 | 21.16084 | -157.11916 | 1236 ft | 124 kts | 243° |
| 2026-04-14 17:49 | 21.15407 | -157.12468 | 1052 ft | 142 kts | 184° |
| 2026-04-14 17:49 | 21.14633 | -157.12151 | 999 ft | 109 kts | 148° |
| 2026-04-14 17:49 | 21.14056 | -157.11665 | 752 ft | 101 kts | 119° |
| 2026-04-14 17:50 | 21.14241 | -157.11049 | 648 ft | 86 kts | 50° |
| 2026-04-14 17:50 | 21.14620 | -157.10602 | 619 ft | 78 kts | 41° |
| 2026-04-14 17:50 | 21.14937 | -157.10144 | 524 ft | 69 kts | 57° |
| 2026-04-14 17:50 | 21.15155 | -157.09748 | 441 ft | 53 kts | 58° |
| 2026-04-14 17:51 | 21.15336 | -157.09407 | 446 ft | 67 kts | 59° |
| 2026-04-14 17:51 | 21.15600 | -157.08926 | 632 ft | 73 kts | 56° |
| 2026-04-14 17:51 | 21.15929 | -157.08462 | 760 ft | 84 kts | 49° |
| 2026-04-14 17:51 | 21.16341 | -157.08000 | 839 ft | 91 kts | 44° |
| 2026-04-14 17:52 | 21.16787 | -157.07552 | 1007 ft | 86 kts | 50° |
| 2026-04-14 17:52 | 21.17140 | -157.07005 | 1108 ft | 93 kts | 52° |
| 2026-04-14 17:52 | 21.17545 | -157.06485 | 1179 ft | 90 kts | 46° |
| 2026-04-14 17:52 | 21.18005 | -157.06037 | 1222 ft | 90 kts | 33° |
| 2026-04-14 17:53 | 21.18592 | -157.06002 | 1243 ft | 90 kts | 337° |
| 2026-04-14 17:53 | 21.19000 | -157.06477 | 1268 ft | 96 kts | 278° |
| 2026-04-14 17:53 | 21.18688 | -157.07073 | 1400 ft | 94 kts | 232° |
| 2026-04-14 17:53 | 21.18270 | -157.07662 | 1326 ft | 102 kts | 237° |
| 2026-04-14 17:54 | 21.17870 | -157.08246 | 1369 ft | 97 kts | 234° |
| 2026-04-14 17:54 | 21.17457 | -157.08802 | 1364 ft | 95 kts | 237° |
| 2026-04-14 17:54 | 21.17126 | -157.09414 | 1365 ft | 94 kts | 243° |
| 2026-04-14 17:54 | 21.16788 | -157.10002 | 1361 ft | 94 kts | 239° |
| 2026-04-14 17:55 | 21.16423 | -157.10587 | 1362 ft | 93 kts | 241° |
| 2026-04-14 17:55 | 21.16093 | -157.11169 | 1326 ft | 90 kts | 242° |
| 2026-04-14 17:55 | 21.15572 | -157.11488 | 1135 ft | 95 kts | 172° |
| 2026-04-14 17:55 | 21.14978 | -157.11161 | 996 ft | 90 kts | 153° |
| 2026-04-14 17:56 | 21.14599 | -157.10723 | 818 ft | 87 kts | 71° |
| 2026-04-14 17:56 | 21.14874 | -157.10236 | 652 ft | 67 kts | 82° |
| 2026-04-14 17:56 | 21.15114 | -157.09821 | 454 ft | 62 kts | 57° |
| 2026-04-14 17:56 | 21.15282 | -157.09515 | 443 ft | 36 kts | 62° |
| 2026-04-14 17:57 | 21.15387 | -157.09318 | 447 ft | 26 kts | 57° |
| 2026-04-14 17:57 | 21.15456 | -157.09291 | 447 ft | 10 kts | 330° |
| 2026-04-14 17:57 | 21.15506 | -157.09323 | 447 ft | 6 kts | 359° |
| 2026-04-14 17:57 | 21.15522 | -157.09316 | 447 ft | 0 kts | 68° |